Time;durP1;ratioP1;P1;durP2;ratioP2;P2;SDS_P1;SDS_P2;PMS_P1;PMS_P2;Temp;Humidity;BMP_temperature;BMP_pressure;BME280_temperature;BME280_humidity;BME280_pressure;Samples;Min_cycle;Max_cycle;Signal;HPM_P1;HPM_P2
2023/06/25 00:01:24;;;;;;;8.60;6.80;;;18.60;99.90;;;;;;5131229;27;20040;-65
2023/06/25 00:03:50;;;;;;;8.20;7.40;;;18.50;99.90;;;;;;5114469;27;20071;-64
2023/06/25 00:06:16;;;;;;;9.00;7.47;;;18.50;99.90;;;;;;5131109;27;20408;-65
2023/06/25 00:08:42;;;;;;;9.23;7.60;;;18.40;99.90;;;;;;5119319;27;20039;-65
2023/06/25 00:11:07;;;;;;;8.27;7.40;;;18.40;99.90;;;;;;5095461;28;20042;-64
2023/06/25 00:13:33;;;;;;;11.25;7.65;;;18.40;99.90;;;;;;5112584;27;20127;-65
2023/06/25 00:15:59;;;;;;;7.65;6.65;;;18.30;99.90;;;;;;5129317;27;20042;-65
2023/06/25 00:18:26;;;;;;;7.97;7.18;;;18.30;99.90;;;;;;5132677;27;20042;-65
2023/06/25 00:20:53;;;;;;;8.63;7.72;;;18.30;99.90;;;;;;5132945;27;20102;-65
2023/06/25 00:23:19;;;;;;;8.20;7.40;;;18.30;99.90;;;;;;5133390;27;20043;-65
2023/06/25 00:25:45;;;;;;;8.20;7.40;;;18.20;99.90;;;;;;5130679;27;20043;-64
2023/06/25 00:28:10;;;;;;;8.45;7.50;;;18.20;99.90;;;;;;5112690;28;20091;-65
2023/06/25 00:30:37;;;;;;;9.40;8.43;;;18.20;99.90;;;;;;5112401;27;20031;-65
2023/06/25 00:33:03;;;;;;;10.38;7.82;;;18.20;99.90;;;;;;5112763;27;20538;-65
2023/06/25 00:35:51;;;;;;;9.85;7.57;;;18.20;99.90;;;;;;5114327;27;20031;-65
2023/06/25 00:38:19;;;;;;;10.40;8.23;;;18.20;99.90;;;;;;5112464;28;20047;-66
2023/06/25 00:40:45;;;;;;;9.20;8.30;;;18.10;99.90;;;;;;5112198;27;20035;-65
2023/06/25 00:43:15;;;;;;;9.35;8.20;;;18.10;99.90;;;;;;5112305;27;20100;-65
2023/06/25 00:45:40;;;;;;;13.95;8.15;;;18.10;99.90;;;;;;5115625;27;20035;-64
2023/06/25 00:48:06;;;;;;;10.57;8.18;;;18.00;99.90;;;;;;5123755;27;20367;-65
2023/06/25 00:50:32;;;;;;;8.50;7.63;;;18.00;99.90;;;;;;5136628;27;20031;-64
2023/06/25 00:52:59;;;;;;;11.48;8.27;;;18.00;99.90;;;;;;5155040;27;20452;-65
2023/06/25 00:55:25;;;;;;;9.00;7.93;;;18.00;99.90;;;;;;5155406;27;20027;-65
2023/06/25 00:57:52;;;;;;;9.27;7.70;;;17.90;99.90;;;;;;5127139;27;20041;-65
2023/06/25 01:00:19;;;;;;;10.23;7.65;;;17.90;99.90;;;;;;5115795;27;20169;-65
2023/06/25 01:03:00;;;;;;;8.68;7.82;;;17.90;99.90;;;;;;5115599;27;20050;-65
2023/06/25 01:05:39;;;;;;;9.00;8.10;;;17.90;99.90;;;;;;5116072;27;20050;-64
2023/06/25 01:08:11;;;;;;;10.50;8.55;;;17.90;99.90;;;;;;5141058;27;20042;-65
2023/06/25 01:10:38;;;;;;;9.63;7.90;;;17.80;99.90;;;;;;5154786;27;20035;-64
2023/06/25 01:13:05;;;;;;;8.82;7.93;;;17.90;99.90;;;;;;5118072;27;20043;-65
2023/06/25 01:15:31;;;;;;;11.05;8.60;;;17.80;99.90;;;;;;5135966;27;20023;-66
2023/06/25 01:17:57;;;;;;;9.95;8.75;;;17.80;99.90;;;;;;5135435;27;20038;-66
2023/06/25 01:20:27;;;;;;;9.40;8.45;;;17.80;99.90;;;;;;5121357;27;20035;-65
2023/06/25 01:22:57;;;;;;;9.35;8.23;;;17.80;99.90;;;;;;5133762;27;20038;-64
2023/06/25 01:25:23;;;;;;;10.88;8.65;;;17.80;99.90;;;;;;5115400;27;20125;-65
2023/06/25 01:27:50;;;;;;;9.30;8.02;;;17.80;99.90;;;;;;5115383;27;20043;-66
2023/06/25 01:30:17;;;;;;;9.68;8.73;;;17.90;99.90;;;;;;5117271;27;20110;-65
2023/06/25 01:32:44;;;;;;;9.32;8.30;;;17.80;99.90;;;;;;5115235;27;20095;-65
2023/06/25 01:35:12;;;;;;;10.00;9.00;;;17.80;99.90;;;;;;5133341;27;20039;-66
2023/06/25 01:37:37;;;;;;;10.02;8.90;;;17.80;99.90;;;;;;5115042;27;20039;-64
2023/06/25 01:40:03;;;;;;;10.35;8.70;;;17.80;99.90;;;;;;5116160;27;20471;-66
2023/06/25 01:42:29;;;;;;;9.95;8.93;;;17.80;99.90;;;;;;5115334;27;20424;-64
2023/06/25 01:44:55;;;;;;;9.75;8.73;;;17.80;99.90;;;;;;5115224;27;20054;-66
2023/06/25 01:47:20;;;;;;;13.00;9.80;;;17.80;99.90;;;;;;5114750;27;20050;-64
2023/06/25 01:49:46;;;;;;;10.57;8.93;;;17.70;99.90;;;;;;5118608;27;20042;-65
2023/06/25 01:52:11;;;;;;;11.90;10.10;;;17.70;99.90;;;;;;5118448;27;20489;-65
2023/06/25 01:54:37;;;;;;;10.82;9.27;;;17.70;99.90;;;;;;5133130;27;20119;-64
2023/06/25 01:57:03;;;;;;;10.63;9.35;;;17.70;99.90;;;;;;5113801;27;20039;-66
2023/06/25 01:59:29;;;;;;;11.82;9.50;;;17.60;99.90;;;;;;5117680;27;20054;-65
2023/06/25 02:01:54;;;;;;;11.35;9.18;;;17.60;99.90;;;;;;5135157;27;20466;-65
2023/06/25 02:04:20;;;;;;;10.57;9.32;;;17.60;99.90;;;;;;5134788;27;20504;-64
2023/06/25 02:06:46;;;;;;;12.65;10.63;;;17.60;99.90;;;;;;5135042;27;20042;-65
2023/06/25 02:09:13;;;;;;;15.55;10.65;;;17.60;99.90;;;;;;5134629;27;20034;-66
2023/06/25 02:11:39;;;;;;;13.25;10.52;;;17.60;99.90;;;;;;5133203;27;20405;-63
2023/06/25 02:14:05;;;;;;;16.15;11.55;;;17.60;99.90;;;;;;5134362;27;20050;-65
2023/06/25 02:16:31;;;;;;;13.23;11.82;;;17.60;99.90;;;;;;5134858;27;20039;-66
2023/06/25 02:18:57;;;;;;;17.13;11.52;;;17.60;99.90;;;;;;5135020;27;20476;-65
2023/06/25 02:21:22;;;;;;;13.38;11.68;;;17.70;99.90;;;;;;5149452;27;20031;-65
2023/06/25 02:23:48;;;;;;;12.73;11.43;;;17.70;99.90;;;;;;5114116;27;20027;-64
2023/06/25 02:26:13;;;;;;;14.93;12.18;;;17.60;99.90;;;;;;5113845;27;20097;-65
2023/06/25 02:28:39;;;;;;;15.60;11.93;;;17.70;99.90;;;;;;5114217;27;20085;-65
2023/06/25 02:31:05;;;;;;;15.07;11.70;;;17.60;99.90;;;;;;5114568;27;20043;-66
2023/06/25 02:33:31;;;;;;;14.32;12.65;;;17.70;99.90;;;;;;5122002;27;20035;-65
2023/06/25 02:35:57;;;;;;;18.27;12.70;;;17.60;99.90;;;;;;5114440;27;20057;-65
2023/06/25 02:38:22;;;;;;;14.80;12.30;;;17.70;99.90;;;;;;5113726;27;20035;-66
2023/06/25 02:40:48;;;;;;;16.13;12.50;;;17.70;99.90;;;;;;5113941;27;20054;-66
2023/06/25 02:43:14;;;;;;;16.33;12.98;;;17.70;99.90;;;;;;5126605;27;20042;-64
2023/06/25 02:45:39;;;;;;;15.43;12.75;;;17.70;99.90;;;;;;5134217;27;20129;-64
2023/06/25 02:48:05;;;;;;;14.20;12.70;;;17.70;99.90;;;;;;5134547;27;20042;-63
2023/06/25 02:50:30;;;;;;;14.90;12.32;;;17.60;99.90;;;;;;5134082;27;20027;-64
2023/06/25 02:52:56;;;;;;;15.77;13.30;;;17.60;99.90;;;;;;5134118;27;20423;-64
2023/06/25 02:55:22;;;;;;;15.77;13.18;;;17.60;99.90;;;;;;5131629;27;20038;-65
2023/06/25 02:57:47;;;;;;;15.98;13.65;;;17.60;99.90;;;;;;5131861;27;20508;-65
2023/06/25 03:00:13;;;;;;;16.98;13.25;;;17.60;99.90;;;;;;5113836;27;20077;-66
2023/06/25 03:02:39;;;;;;;18.35;14.52;;;17.60;99.90;;;;;;5096151;27;20049;-65
2023/06/25 03:05:05;;;;;;;16.08;13.55;;;17.60;99.90;;;;;;5134875;27;20505;-65
2023/06/25 03:07:30;;;;;;;17.17;13.50;;;17.60;99.90;;;;;;5131371;27;20039;-64
2023/06/25 03:09:56;;;;;;;16.67;13.48;;;17.60;99.90;;;;;;5113759;27;20355;-64
2023/06/25 03:12:21;;;;;;;14.55;12.60;;;17.60;99.90;;;;;;5113199;27;20078;-65
2023/06/25 03:14:48;;;;;;;20.08;15.20;;;17.60;99.90;;;;;;5126766;27;20023;-64
2023/06/25 03:17:13;;;;;;;18.83;14.02;;;17.60;99.90;;;;;;5133635;27;20093;-65
2023/06/25 03:19:39;;;;;;;17.35;13.77;;;17.50;99.90;;;;;;5133939;27;20086;-66
2023/06/25 03:22:05;;;;;;;15.57;13.02;;;17.50;99.90;;;;;;5133679;27;20046;-65
2023/06/25 03:24:31;;;;;;;16.70;13.90;;;17.50;99.90;;;;;;5133054;27;20383;-65
2023/06/25 03:26:57;;;;;;;16.40;13.10;;;17.50;99.90;;;;;;5112055;28;20453;-65
2023/06/25 03:29:22;;;;;;;15.15;13.25;;;17.50;99.90;;;;;;5113187;27;20118;-64
2023/06/25 03:31:48;;;;;;;15.25;12.55;;;17.50;99.90;;;;;;5133911;27;20074;-65
2023/06/25 03:34:13;;;;;;;18.33;13.48;;;17.50;99.90;;;;;;5152201;27;20030;-64
2023/06/25 03:36:39;;;;;;;18.73;14.50;;;17.50;99.90;;;;;;5104008;27;20051;-66
2023/06/25 03:39:05;;;;;;;18.05;13.95;;;17.50;99.90;;;;;;5113160;28;20043;-66
2023/06/25 03:41:30;;;;;;;17.10;13.02;;;17.60;99.90;;;;;;5131364;27;20114;-66
2023/06/25 03:43:56;;;;;;;16.98;13.98;;;17.50;99.90;;;;;;5112474;28;20525;-65
2023/06/25 03:46:21;;;;;;;15.07;12.88;;;17.60;99.90;;;;;;5119141;27;20401;-65
2023/06/25 03:48:47;;;;;;;16.85;13.82;;;17.60;99.90;;;;;;5095888;27;20496;-66
2023/06/25 03:51:13;;;;;;;16.02;12.60;;;17.60;99.90;;;;;;5112949;28;20031;-64
2023/06/25 03:53:39;;;;;;;14.32;12.60;;;17.60;99.90;;;;;;5112747;27;20037;-66
2023/06/25 03:56:05;;;;;;;17.80;13.23;;;17.70;99.90;;;;;;5113114;28;20043;-65
2023/06/25 03:58:30;;;;;;;17.52;13.00;;;17.70;99.90;;;;;;5133918;27;20043;-64
2023/06/25 04:00:56;;;;;;;16.67;13.57;;;17.70;99.90;;;;;;5112750;27;20043;-64
2023/06/25 04:03:22;;;;;;;17.02;13.35;;;17.70;99.90;;;;;;5113171;28;20043;-64
2023/06/25 04:05:48;;;;;;;14.63;12.73;;;17.80;99.90;;;;;;5112379;27;20119;-65
2023/06/25 04:08:14;;;;;;;17.65;12.98;;;17.80;99.90;;;;;;5135694;27;20066;-65
2023/06/25 04:10:40;;;;;;;15.63;13.27;;;17.80;99.90;;;;;;5112707;27;20140;-65
2023/06/25 04:13:06;;;;;;;16.98;13.48;;;17.80;99.90;;;;;;5113136;28;20427;-63
2023/06/25 04:15:32;;;;;;;18.25;13.32;;;17.90;99.90;;;;;;5112529;27;20038;-64
2023/06/25 04:17:58;;;;;;;13.98;12.48;;;17.90;99.90;;;;;;5134792;27;20039;-65
2023/06/25 04:20:26;;;;;;;14.98;12.07;;;18.00;99.90;;;;;;5120642;27;20053;-65
2023/06/25 04:22:52;;;;;;;16.08;13.35;;;18.00;99.90;;;;;;5116485;27;20534;-66
2023/06/25 04:25:17;;;;;;;14.65;12.27;;;18.10;99.90;;;;;;5099566;27;20121;-65
2023/06/25 04:27:43;;;;;;;15.85;12.77;;;18.10;99.90;;;;;;5116062;27;20429;-65
2023/06/25 04:30:09;;;;;;;16.15;12.60;;;18.20;99.90;;;;;;5133313;27;20074;-64
2023/06/25 04:32:35;;;;;;;14.98;12.45;;;18.20;99.90;;;;;;5155700;27;20370;-64
2023/06/25 04:35:00;;;;;;;15.30;11.82;;;18.30;99.90;;;;;;5155450;27;20034;-65
2023/06/25 04:37:26;;;;;;;15.82;12.15;;;18.30;99.90;;;;;;5136893;27;20039;-65
2023/06/25 04:39:52;;;;;;;15.55;13.40;;;18.40;99.90;;;;;;5133700;27;20532;-65
2023/06/25 04:42:17;;;;;;;17.65;13.68;;;18.40;99.90;;;;;;5116285;27;20489;-65
2023/06/25 04:44:43;;;;;;;13.98;12.05;;;18.50;99.90;;;;;;5134474;27;20393;-64
2023/06/25 04:47:09;;;;;;;15.07;12.93;;;18.50;99.90;;;;;;5115963;27;20494;-65
2023/06/25 04:49:34;;;;;;;16.00;12.65;;;18.50;99.90;;;;;;5135473;27;20042;-66
2023/06/25 04:52:00;;;;;;;17.02;12.52;;;18.60;99.90;;;;;;5117281;27;20154;-64
2023/06/25 04:54:26;;;;;;;16.40;12.52;;;18.70;99.90;;;;;;5134432;27;20106;-65
2023/06/25 04:56:51;;;;;;;15.43;12.25;;;18.70;99.90;;;;;;5115653;27;20047;-65
2023/06/25 04:59:17;;;;;;;13.90;11.82;;;18.80;99.90;;;;;;5134245;27;20035;-65
2023/06/25 05:01:43;;;;;;;14.32;12.05;;;18.90;99.90;;;;;;5147896;27;20481;-65
2023/06/25 05:04:09;;;;;;;13.05;11.65;;;18.90;99.90;;;;;;5136431;27;20049;-65
2023/06/25 05:06:34;;;;;;;14.45;12.18;;;19.00;99.90;;;;;;5136459;27;20506;-65
2023/06/25 05:09:00;;;;;;;13.65;11.65;;;19.10;99.90;;;;;;5154767;27;20039;-66
2023/06/25 05:11:25;;;;;;;13.40;11.50;;;19.20;99.90;;;;;;5154094;27;20037;-65
2023/06/25 05:13:51;;;;;;;16.17;11.90;;;19.30;99.90;;;;;;5117767;27;20417;-65
2023/06/25 05:16:16;;;;;;;15.02;12.25;;;19.30;99.90;;;;;;5115476;27;20053;-66
2023/06/25 05:18:42;;;;;;;14.18;11.85;;;19.40;99.90;;;;;;5133907;27;20478;-64
2023/06/25 05:21:08;;;;;;;15.02;13.00;;;19.50;99.90;;;;;;5115550;27;20038;-65
2023/06/25 05:23:38;;;;;;;13.88;11.23;;;19.60;99.90;;;;;;5134226;27;20091;-64
2023/06/25 05:26:04;;;;;;;14.27;11.65;;;19.70;99.90;;;;;;5154279;27;20272;-64
2023/06/25 05:28:29;;;;;;;14.57;11.73;;;19.80;99.90;;;;;;5118461;27;20122;-66
2023/06/25 05:30:55;;;;;;;15.38;12.18;;;19.80;99.90;;;;;;5144089;27;20050;-66
2023/06/25 05:33:21;;;;;;;13.30;11.13;;;19.90;99.90;;;;;;5115148;27;20031;-65
2023/06/25 05:35:46;;;;;;;15.90;11.80;;;20.00;99.90;;;;;;5115473;27;20070;-64
2023/06/25 05:38:12;;;;;;;15.85;11.63;;;20.10;99.90;;;;;;5115095;27;20070;-64
2023/06/25 05:40:37;;;;;;;14.98;11.90;;;20.20;99.90;;;;;;5125560;27;20105;-64
2023/06/25 05:43:03;;;;;;;14.18;12.23;;;20.40;99.90;;;;;;5135314;27;20053;-64
2023/06/25 05:45:29;;;;;;;13.27;11.73;;;20.40;99.90;;;;;;5135543;27;20401;-64
2023/06/25 05:47:54;;;;;;;16.55;12.57;;;20.50;99.90;;;;;;5135561;27;20069;-64
2023/06/25 05:50:20;;;;;;;14.23;12.63;;;20.60;99.90;;;;;;5135101;27;20022;-64
2023/06/25 05:52:46;;;;;;;15.43;12.57;;;20.70;99.90;;;;;;5135468;27;20095;-64
2023/06/25 05:55:11;;;;;;;15.27;12.70;;;20.70;99.90;;;;;;5135182;27;20430;-64
2023/06/25 05:57:37;;;;;;;13.50;11.77;;;20.90;99.90;;;;;;5135146;27;20045;-65
2023/06/25 06:00:04;;;;;;;14.18;12.32;;;20.90;99.90;;;;;;5134949;27;20392;-65
2023/06/25 06:02:30;;;;;;;14.50;12.25;;;21.10;99.90;;;;;;5121603;27;20439;-63
2023/06/25 06:04:55;;;;;;;14.18;12.65;;;21.20;99.90;;;;;;5133079;27;20039;-64
2023/06/25 06:07:21;;;;;;;14.02;12.45;;;21.30;99.90;;;;;;5114311;27;20090;-65
2023/06/25 06:09:46;;;;;;;14.90;12.90;;;21.40;99.90;;;;;;5114653;27;20038;-65
2023/06/25 06:12:12;;;;;;;16.48;13.00;;;21.50;99.90;;;;;;5100154;27;20478;-66
2023/06/25 06:14:38;;;;;;;15.32;12.30;;;21.60;99.90;;;;;;5114422;27;20069;-65
2023/06/25 06:17:05;;;;;;;13.13;11.75;;;21.70;99.90;;;;;;5114094;27;20100;-64
2023/06/25 06:19:30;;;;;;;15.27;12.55;;;21.80;99.90;;;;;;5114189;27;20042;-64
2023/06/25 06:21:56;;;;;;;16.00;12.20;;;22.00;99.90;;;;;;5114271;27;20055;-65
2023/06/25 06:24:22;;;;;;;13.27;11.68;;;22.10;99.90;;;;;;5103575;27;20101;-64
2023/06/25 06:26:49;;;;;;;14.55;12.00;;;22.20;99.90;;;;;;5114348;27;20047;-65
2023/06/25 06:29:15;;;;;;;14.73;12.55;;;22.20;99.90;;;;;;5114036;27;20458;-66
2023/06/25 06:31:41;;;;;;;14.30;12.52;;;22.40;99.90;;;;;;5096821;27;20051;-65
2023/06/25 06:34:06;;;;;;;13.05;11.75;;;22.50;99.90;;;;;;5120981;27;20038;-65
2023/06/25 06:36:32;;;;;;;14.98;11.35;;;22.60;99.90;;;;;;5129723;27;20038;-64
2023/06/25 06:38:57;;;;;;;14.57;12.13;;;22.80;99.90;;;;;;5129631;27;20039;-65
2023/06/25 06:41:23;;;;;;;14.57;13.00;;;22.90;99.90;;;;;;5124217;27;20034;-65
2023/06/25 06:43:48;;;;;;;13.27;11.88;;;23.00;99.90;;;;;;5124573;27;20051;-65
2023/06/25 06:46:14;;;;;;;13.60;12.30;;;23.10;99.90;;;;;;5127619;27;20039;-65
2023/06/25 06:48:40;;;;;;;13.95;12.13;;;23.20;99.90;;;;;;5125083;27;20181;-64
2023/06/25 06:51:05;;;;;;;12.82;11.13;;;23.20;99.90;;;;;;5127806;27;20464;-64
2023/06/25 06:53:31;;;;;;;13.07;10.88;;;23.30;99.90;;;;;;5140674;27;20113;-66
2023/06/25 06:55:56;;;;;;;14.18;11.50;;;23.50;99.90;;;;;;5141062;27;20050;-65
2023/06/25 06:58:22;;;;;;;13.30;11.32;;;23.60;99.90;;;;;;5125438;27;20054;-64
2023/06/25 07:00:48;;;;;;;11.45;10.30;;;23.70;99.90;;;;;;5142458;27;20046;-66
2023/06/25 07:03:13;;;;;;;13.02;11.68;;;23.90;99.90;;;;;;5125261;27;20047;-65
2023/06/25 07:05:39;;;;;;;13.55;12.25;;;24.00;99.90;;;;;;5122551;27;20043;-65
2023/06/25 07:08:05;;;;;;;12.88;11.50;;;24.20;99.90;;;;;;5123587;27;20035;-65
2023/06/25 07:10:31;;;;;;;11.82;10.63;;;24.30;99.90;;;;;;5117519;27;20035;-65
2023/06/25 07:12:56;;;;;;;13.60;10.85;;;24.50;99.90;;;;;;5133630;27;20038;-65
2023/06/25 07:15:22;;;;;;;12.30;11.07;;;24.60;99.90;;;;;;5122510;27;20041;-65
2023/06/25 07:17:48;;;;;;;11.77;10.57;;;24.60;99.90;;;;;;5118239;27;20031;-65
2023/06/25 07:20:13;;;;;;;13.65;11.05;;;24.70;99.90;;;;;;5119842;27;20051;-65
2023/06/25 07:22:40;;;;;;;11.45;10.35;;;24.70;99.90;;;;;;5123130;27;20053;-66
2023/06/25 07:25:08;;;;;;;12.13;10.93;;;24.80;99.90;;;;;;5127431;27;20041;-66
2023/06/25 07:27:33;;;;;;;12.48;10.50;;;24.80;99.90;;;;;;5123439;27;20042;-65
2023/06/25 07:29:59;;;;;;;10.95;9.85;;;24.90;99.90;;;;;;5101325;27;20047;-65
2023/06/25 07:32:25;;;;;;;11.57;10.38;;;25.00;99.90;;;;;;5132061;27;20511;-66
2023/06/25 07:34:50;;;;;;;11.98;10.15;;;25.10;99.90;;;;;;5130162;27;20035;-64
2023/06/25 07:37:16;;;;;;;13.07;9.32;;;25.20;99.90;;;;;;5131472;27;20086;-65
2023/06/25 07:39:41;;;;;;;8.63;7.82;;;25.30;99.90;;;;;;5128888;27;20039;-66
2023/06/25 07:42:07;;;;;;;11.02;8.43;;;25.50;99.90;;;;;;5131087;27;20038;-64
2023/06/25 07:44:33;;;;;;;10.50;9.10;;;25.60;99.90;;;;;;5126681;27;20046;-65
2023/06/25 07:46:58;;;;;;;8.60;7.65;;;25.70;99.90;;;;;;5126833;27;20050;-65
2023/06/25 07:49:24;;;;;;;9.20;8.10;;;25.80;99.90;;;;;;5127117;27;20438;-65
2023/06/25 07:51:50;;;;;;;9.10;8.10;;;25.90;99.90;;;;;;5130571;27;20056;-65
2023/06/25 07:54:17;;;;;;;9.13;8.23;;;26.10;99.90;;;;;;5131526;27;20038;-65
2023/06/25 07:56:44;;;;;;;11.25;8.52;;;26.30;99.90;;;;;;5130626;27;20042;-66
2023/06/25 07:59:11;;;;;;;10.30;8.52;;;26.30;99.80;;;;;;5111142;27;20517;-66
2023/06/25 08:01:37;;;;;;;10.27;8.45;;;26.40;99.40;;;;;;5134664;27;20499;-66
2023/06/25 08:04:03;;;;;;;8.43;7.32;;;26.50;99.10;;;;;;5130431;27;20123;-66
2023/06/25 08:06:28;;;;;;;7.70;7.00;;;26.60;98.80;;;;;;5127273;27;20069;-64
2023/06/25 08:08:54;;;;;;;9.68;7.75;;;26.60;98.00;;;;;;5127839;27;20503;-65
2023/06/25 08:11:20;;;;;;;10.20;7.95;;;26.70;97.90;;;;;;5126928;27;20038;-65
2023/06/25 08:13:46;;;;;;;8.32;6.18;;;26.80;96.80;;;;;;5123581;27;20041;-66
2023/06/25 08:16:11;;;;;;;7.97;7.18;;;26.90;96.60;;;;;;5146416;27;20042;-65
2023/06/25 08:18:37;;;;;;;8.23;5.90;;;27.10;96.10;;;;;;5129355;27;20162;-66
2023/06/25 08:21:02;;;;;;;8.93;5.30;;;27.10;94.60;;;;;;5145661;27;20035;-65
2023/06/25 08:23:28;;;;;;;9.27;6.43;;;27.20;94.80;;;;;;5128567;27;20050;-64
2023/06/25 08:25:55;;;;;;;7.35;6.00;;;27.30;93.80;;;;;;5141595;27;20031;-65
2023/06/25 08:28:20;;;;;;;7.05;6.38;;;27.30;94.00;;;;;;5130093;27;20046;-64
2023/06/25 08:30:46;;;;;;;7.57;5.82;;;27.30;93.00;;;;;;5120864;27;20059;-65
2023/06/25 08:33:12;;;;;;;7.80;6.13;;;27.40;92.60;;;;;;5123924;27;20039;-65
2023/06/25 08:35:37;;;;;;;5.40;4.90;;;27.40;91.90;;;;;;5120712;27;20042;-65
2023/06/25 08:38:03;;;;;;;7.03;5.07;;;27.50;91.90;;;;;;5125797;27;20486;-65
2023/06/25 08:40:30;;;;;;;5.80;5.13;;;27.60;92.20;;;;;;5119378;27;20042;-66
2023/06/25 08:42:56;;;;;;;7.78;5.47;;;27.80;92.20;;;;;;5121490;27;20043;-65
2023/06/25 08:45:22;;;;;;;6.63;5.95;;;27.80;90.90;;;;;;5131225;27;20561;-66
2023/06/25 08:47:55;;;;;;;6.00;5.40;;;27.90;91.60;;;;;;5137091;27;20439;-65
2023/06/25 08:50:21;;;;;;;5.47;4.68;;;28.10;91.20;;;;;;5121077;27;20042;-66
2023/06/25 08:52:47;;;;;;;5.88;4.60;;;28.20;90.80;;;;;;5126821;27;20035;-65
2023/06/25 08:55:14;;;;;;;6.80;5.90;;;28.30;90.70;;;;;;5133576;27;20035;-63
2023/06/25 08:57:40;;;;;;;5.25;4.32;;;28.50;91.00;;;;;;5133095;27;20031;-66
2023/06/25 09:00:07;;;;;;;5.13;4.07;;;28.70;90.00;;;;;;5150640;27;20058;-66
2023/06/25 09:02:33;;;;;;;5.75;4.03;;;28.70;87.60;;;;;;5114127;27;20373;-66
2023/06/25 09:05:07;;;;;;;6.25;4.68;;;28.80;87.70;;;;;;5129768;27;20050;-66
2023/06/25 09:07:36;;;;;;;6.00;4.68;;;29.00;86.30;;;;;;5127680;27;20043;-65
2023/06/25 09:10:06;;;;;;;5.40;4.82;;;28.80;85.00;;;;;;5147683;27;20039;-66
2023/06/25 09:12:31;;;;;;;9.23;5.13;;;29.00;85.90;;;;;;5123771;27;20046;-65
2023/06/25 09:14:58;;;;;;;7.20;5.60;;;29.00;83.60;;;;;;5129272;27;20050;-65
2023/06/25 09:17:24;;;;;;;6.97;5.13;;;29.10;82.90;;;;;;5112622;27;20046;-66
2023/06/25 09:19:49;;;;;;;6.25;4.97;;;29.00;81.50;;;;;;5127150;27;20044;-66
2023/06/25 09:22:15;;;;;;;8.38;5.22;;;29.10;83.40;;;;;;5130262;27;20054;-66
2023/06/25 09:24:47;;;;;;;5.68;4.80;;;29.10;82.30;;;;;;5130217;27;20042;-65
2023/06/25 09:27:13;;;;;;;5.85;4.43;;;29.30;82.70;;;;;;5109433;27;20119;-65
2023/06/25 09:29:39;;;;;;;6.72;4.85;;;29.40;82.20;;;;;;5128962;27;20070;-66
2023/06/25 09:32:09;;;;;;;7.72;4.57;;;29.60;81.40;;;;;;5140995;27;20083;-65
2023/06/25 09:34:34;;;;;;;7.75;5.45;;;29.70;80.10;;;;;;5110016;27;20049;-66
2023/06/25 09:37:04;;;;;;;9.13;5.50;;;29.60;77.50;;;;;;5127764;27;20046;-65
2023/06/25 09:39:33;;;;;;;10.48;5.60;;;29.70;78.10;;;;;;5126330;27;20039;-64
2023/06/25 09:42:00;;;;;;;6.82;4.90;;;29.80;78.60;;;;;;5123256;27;20034;-65
2023/06/25 09:44:27;;;;;;;7.75;4.60;;;29.90;78.00;;;;;;5121035;27;20520;-65
2023/06/25 09:46:59;;;;;;;9.52;5.82;;;30.10;78.70;;;;;;5147353;27;20469;-65
2023/06/25 09:49:30;;;;;;;8.48;5.70;;;30.20;76.60;;;;;;5124218;27;20118;-65
2023/06/25 09:52:06;;;;;;;9.25;5.28;;;30.40;76.30;;;;;;5127867;27;20503;-65
2023/06/25 09:54:34;;;;;;;11.68;6.60;;;30.40;75.20;;;;;;5130315;27;20098;-65
2023/06/25 09:57:02;;;;;;;9.82;5.95;;;30.30;73.00;;;;;;5127400;27;20043;-66
2023/06/25 09:59:28;;;;;;;9.77;6.00;;;30.30;74.30;;;;;;5085371;27;1113208;-65
2023/06/25 10:01:54;;;;;;;11.25;5.75;;;30.50;74.20;;;;;;5129009;27;20054;-66
2023/06/25 10:04:20;;;;;;;8.25;5.03;;;30.60;74.00;;;;;;5124727;27;20035;-65
2023/06/25 10:06:46;;;;;;;7.45;5.53;;;30.60;74.90;;;;;;5126610;27;20043;-67
2023/06/25 10:09:13;;;;;;;8.70;5.93;;;30.80;73.90;;;;;;5128398;27;20035;-65
2023/06/25 10:11:52;;;;;;;8.68;5.78;;;30.60;72.30;;;;;;5122606;27;20047;-66
2023/06/25 10:14:17;;;;;;;8.73;5.72;;;30.70;71.00;;;;;;5124812;27;20100;-67
2023/06/25 10:16:54;;;;;;;8.02;5.63;;;30.80;70.20;;;;;;5124198;27;20093;-66
2023/06/25 10:19:25;;;;;;;7.55;5.40;;;30.90;69.90;;;;;;5145750;27;20082;-67
2023/06/25 10:22:13;;;;;;;7.67;4.93;;;30.90;71.00;;;;;;5124943;27;20038;-66
2023/06/25 10:24:51;;;;;;;4.85;4.32;;;31.10;70.60;;;;;;5127542;27;20046;-66
2023/06/25 10:27:20;;;;;;;6.68;4.00;;;31.20;72.30;;;;;;5119107;27;20046;-66
2023/06/25 10:29:46;;;;;;;4.28;3.60;;;31.30;67.60;;;;;;5122472;27;20084;-65
2023/06/25 10:32:12;;;;;;;8.60;3.90;;;31.20;68.40;;;;;;5118354;27;20039;-65
2023/06/25 10:34:38;;;;;;;4.00;3.60;;;31.10;67.00;;;;;;5117335;27;20106;-66
2023/06/25 10:37:05;;;;;;;4.25;3.67;;;31.20;66.20;;;;;;5137531;27;20126;-65
2023/06/25 10:39:41;;;;;;;4.30;3.85;;;31.30;67.40;;;;;;5123303;27;20039;-67
2023/06/25 10:42:07;;;;;;;5.22;3.50;;;31.50;67.60;;;;;;5124197;27;20058;-65
2023/06/25 10:44:34;;;;;;;3.95;3.55;;;31.50;66.10;;;;;;5104015;27;20035;-64
2023/06/25 10:47:10;;;;;;;5.63;3.72;;;31.60;66.40;;;;;;5126529;27;20055;-65
2023/06/25 10:49:36;;;;;;;4.90;3.25;;;31.70;64.80;;;;;;5126254;27;20094;-65
2023/06/25 10:52:03;;;;;;;5.93;3.80;;;31.60;65.00;;;;;;5119228;27;20046;-65
2023/06/25 10:54:33;;;;;;;4.72;3.75;;;31.30;64.00;;;;;;5122804;27;20114;-64
2023/06/25 10:57:09;;;;;;;3.83;3.50;;;31.40;64.50;;;;;;5115000;27;20082;-65
2023/06/25 10:59:35;;;;;;;5.80;3.85;;;31.50;65.80;;;;;;5117638;27;20135;-65
2023/06/25 11:02:17;;;;;;;3.60;3.30;;;31.50;65.40;;;;;;5117901;27;20043;-67
2023/06/25 11:04:51;;;;;;;5.47;3.63;;;31.60;67.90;;;;;;5114649;27;20034;-66
2023/06/25 11:07:19;;;;;;;4.28;3.88;;;31.70;66.00;;;;;;5114142;27;20123;-66
2023/06/25 11:09:46;;;;;;;4.22;3.83;;;31.70;65.40;;;;;;5113504;27;20047;-66
2023/06/25 11:12:11;;;;;;;4.90;4.07;;;31.80;65.30;;;;;;5119362;27;20035;-66
2023/06/25 11:14:37;;;;;;;4.28;3.63;;;31.90;66.10;;;;;;5114245;27;20035;-66
2023/06/25 11:17:03;;;;;;;4.82;4.03;;;31.90;66.10;;;;;;5112695;27;20115;-65
2023/06/25 11:19:31;;;;;;;4.38;3.78;;;31.80;65.70;;;;;;5112820;27;20130;-65
2023/06/25 11:21:57;;;;;;;6.47;3.65;;;32.00;65.70;;;;;;5123828;27;20069;-64
2023/06/25 11:24:23;;;;;;;4.90;3.40;;;32.00;65.40;;;;;;5130512;27;20055;-65
2023/06/25 11:26:56;;;;;;;5.10;3.78;;;32.10;66.20;;;;;;5112068;27;20535;-65
2023/06/25 11:29:22;;;;;;;4.07;3.67;;;32.00;63.60;;;;;;5119116;27;20046;-66
2023/06/25 11:31:48;;;;;;;4.72;3.80;;;31.70;64.50;;;;;;5125256;27;20039;-66
2023/06/25 11:34:24;;;;;;;4.38;3.65;;;31.70;65.10;;;;;;5119128;27;20074;-65
2023/06/25 11:36:50;;;;;;;6.13;3.85;;;31.80;64.60;;;;;;5120932;27;20051;-65
2023/06/25 11:39:16;;;;;;;4.65;4.20;;;31.70;64.80;;;;;;5122427;27;20130;-66
2023/06/25 11:41:45;;;;;;;3.90;3.60;;;31.50;64.70;;;;;;5114182;28;20031;-67
2023/06/25 11:44:18;;;;;;;5.38;4.43;;;31.40;65.50;;;;;;5120953;28;20032;-65
2023/06/25 11:46:52;;;;;;;4.90;4.50;;;31.30;66.80;;;;;;5110511;28;20059;-65
2023/06/25 11:49:19;;;;;;;5.05;4.28;;;31.40;66.00;;;;;;5125877;28;20063;-65
2023/06/25 11:51:45;;;;;;;6.18;4.25;;;31.20;67.40;;;;;;5126200;28;20093;-66
2023/06/25 11:54:11;;;;;;;5.38;4.40;;;31.30;67.90;;;;;;5127097;28;20071;-66
2023/06/25 11:56:37;;;;;;;5.03;4.53;;;31.20;67.90;;;;;;5126334;28;20382;-65
2023/06/25 11:59:03;;;;;;;9.90;5.00;;;31.30;68.80;;;;;;5106721;28;20081;-66
2023/06/25 12:01:32;;;;;;;4.50;4.10;;;31.40;68.80;;;;;;5125204;28;20046;-65
2023/06/25 12:03:57;;;;;;;6.60;4.57;;;31.40;69.00;;;;;;5126580;28;20046;-64
2023/06/25 12:06:25;;;;;;;6.00;4.78;;;31.50;69.00;;;;;;5128068;28;20051;-64
2023/06/25 12:08:50;;;;;;;9.10;4.68;;;31.40;67.50;;;;;;5127365;28;20039;-65
2023/06/25 12:11:17;;;;;;;4.72;4.32;;;31.30;67.50;;;;;;5126138;28;20042;-65
2023/06/25 12:13:43;;;;;;;5.88;4.43;;;31.30;67.80;;;;;;5109634;28;20126;-65
2023/06/25 12:16:08;;;;;;;4.82;4.32;;;31.30;67.90;;;;;;5127506;28;20097;-64
2023/06/25 12:18:34;;;;;;;4.15;3.75;;;31.10;66.00;;;;;;5128674;28;20075;-65
2023/06/25 12:21:00;;;;;;;5.20;4.03;;;31.10;66.70;;;;;;5125340;28;20071;-65
2023/06/25 12:23:25;;;;;;;7.35;4.00;;;31.00;66.10;;;;;;5129355;28;20050;-65
2023/06/25 12:25:51;;;;;;;4.90;4.20;;;30.90;66.30;;;;;;5127883;28;20058;-64
2023/06/25 12:28:16;;;;;;;5.38;4.43;;;30.80;66.60;;;;;;5127493;28;20493;-65
2023/06/25 12:30:42;;;;;;;5.03;4.47;;;30.70;66.20;;;;;;5123595;28;20172;-64
2023/06/25 12:33:08;;;;;;;5.05;4.00;;;30.70;65.70;;;;;;5128212;28;20043;-65
2023/06/25 12:35:33;;;;;;;4.50;3.80;;;30.70;66.10;;;;;;5124593;28;20047;-65